createdAt,value
2017-08-31T00:01:01.136Z,78.12
2017-08-31T00:02:06.993Z,78.19
2017-08-31T00:03:14.036Z,77.71
2017-08-31T00:04:19.915Z,78.33
2017-08-31T00:05:25.965Z,78.11
2017-08-31T00:06:32.125Z,77.83
2017-08-31T00:07:38.576Z,78.36
2017-08-31T00:08:44.732Z,79.10
2017-08-31T00:09:51.106Z,78.44
2017-08-31T00:10:57.141Z,77.62
2017-08-31T00:12:03.344Z,79.02
2017-08-31T00:13:09.458Z,79.12
2017-08-31T00:14:15.505Z,78.88
2017-08-31T00:15:21.869Z,80.96
2017-08-31T00:16:27.978Z,79.30
2017-08-31T00:17:34.404Z,78.76
2017-08-31T00:18:40.416Z,78.89
2017-08-31T00:19:46.471Z,78.31
2017-08-31T00:20:52.624Z,79.02
2017-08-31T00:21:58.849Z,78.15
2017-08-31T00:23:04.931Z,78.22
2017-08-31T00:24:11.011Z,78.35
2017-08-31T00:25:16.876Z,78.20
2017-08-31T00:26:23.680Z,77.56
2017-08-31T00:27:29.901Z,77.33
2017-08-31T00:28:36.071Z,77.28
2017-08-31T00:29:42.176Z,76.98
2017-08-31T00:30:48.275Z,76.71
2017-08-31T00:31:54.161Z,77.39
2017-08-31T00:32:59.940Z,76.62
2017-08-31T00:34:06.797Z,77.10
2017-08-31T00:35:12.876Z,77.08
2017-08-31T00:36:19.040Z,77.45
2017-08-31T00:37:25.753Z,77.69
2017-08-31T00:38:31.955Z,78.00
2017-08-31T00:39:38.940Z,78.76
2017-08-31T00:40:45.664Z,79.29
2017-08-31T00:41:51.815Z,79.15
2017-08-31T00:42:58.003Z,79.61
2017-08-31T00:44:03.591Z,79.34
2017-08-31T00:45:09.544Z,80.24
2017-08-31T00:46:15.488Z,80.12
2017-08-31T00:47:21.881Z,80.91
2017-08-31T00:48:27.801Z,82.28
2017-08-31T00:49:34.000Z,82.10
2017-08-31T00:50:39.155Z,81.57
2017-08-31T00:51:44.506Z,81.37
2017-08-31T00:52:50.427Z,81.47
2017-08-31T00:53:55.585Z,82.31
2017-08-31T00:55:00.961Z,81.56
2017-08-31T00:56:07.167Z,82.04
2017-08-31T00:57:12.546Z,82.13
2017-08-31T00:58:19.404Z,81.55
2017-08-31T00:59:26.260Z,80.95
2017-08-31T01:00:32.387Z,80.76
2017-08-31T01:01:38.104Z,81.42
2017-08-31T01:02:45.378Z,80.92
2017-08-31T01:03:51.679Z,80.69
2017-08-31T01:04:58.730Z,81.47
2017-08-31T01:06:05.636Z,81.12
2017-08-31T01:07:11.632Z,82.42
2017-08-31T01:08:17.588Z,82.46
2017-08-31T01:09:23.149Z,82.58
2017-08-31T01:10:29.216Z,82.96
2017-08-31T01:11:35.220Z,82.62
2017-08-31T01:12:41.447Z,83.62
2017-08-31T01:13:47.569Z,83.87
2017-08-31T01:14:53.774Z,82.49
2017-08-31T01:16:00.749Z,83.03
2017-08-31T01:17:06.832Z,82.65
2017-08-31T01:18:13.615Z,82.74
2017-08-31T01:19:20.388Z,82.29
2017-08-31T01:20:26.859Z,82.65
2017-08-31T01:21:33.007Z,82.37
2017-08-31T01:22:38.203Z,82.16
2017-08-31T01:23:43.944Z,82.68
2017-08-31T01:24:49.337Z,83.17
2017-08-31T01:25:57.481Z,84.53
2017-08-31T01:27:03.208Z,84.44
2017-08-31T01:28:09.463Z,84.56
2017-08-31T01:29:16.102Z,84.66
2017-08-31T01:30:21.304Z,84.12
2017-08-31T01:31:27.759Z,85.07
2017-08-31T01:32:34.667Z,83.92
2017-08-31T01:33:40.470Z,84.29
2017-08-31T01:34:46.600Z,85.07
2017-08-31T01:35:52.905Z,85.10
2017-08-31T01:36:59.411Z,84.85
2017-08-31T01:38:04.878Z,84.96
2017-08-31T01:39:10.303Z,84.59
2017-08-31T01:40:16.280Z,84.97
2017-08-31T01:41:22.502Z,85.37
2017-08-31T01:42:28.467Z,85.32
2017-08-31T01:43:33.837Z,85.18
2017-08-31T01:44:39.225Z,85.38
2017-08-31T01:45:44.594Z,85.31
2017-08-31T01:46:50.585Z,85.14
2017-08-31T01:47:57.477Z,85.11
2017-08-31T01:49:03.517Z,84.78
2017-08-31T01:50:09.802Z,84.96
2017-08-31T01:51:15.297Z,84.91
2017-08-31T01:52:20.767Z,84.21
2017-08-31T01:53:26.105Z,84.64
2017-08-31T01:54:31.885Z,84.60
2017-08-31T01:55:38.108Z,84.34
2017-08-31T01:56:44.398Z,84.32
2017-08-31T01:57:50.659Z,84.03
2017-08-31T01:58:56.579Z,84.70
2017-08-31T02:00:02.934Z,84.32
2017-08-31T02:01:08.549Z,84.24
2017-08-31T02:02:15.405Z,84.12
2017-08-31T02:03:21.129Z,83.93
2017-08-31T02:04:28.031Z,83.89
2017-08-31T02:05:34.420Z,83.91
2017-08-31T02:06:40.613Z,83.73
2017-08-31T02:07:47.715Z,83.73
2017-08-31T02:08:53.788Z,83.72
2017-08-31T02:09:59.840Z,84.39
2017-08-31T02:11:06.677Z,84.64
2017-08-31T02:12:12.744Z,84.26
2017-08-31T02:13:18.842Z,84.50
2017-08-31T02:14:24.942Z,84.64
2017-08-31T02:15:31.047Z,84.65
2017-08-31T02:16:37.943Z,85.66
2017-08-31T02:17:44.129Z,85.18
2017-08-31T02:18:50.356Z,84.88
2017-08-31T02:19:56.208Z,85.08
2017-08-31T02:21:02.064Z,85.39
2017-08-31T02:22:08.577Z,85.28
2017-08-31T02:23:15.262Z,85.48
2017-08-31T02:24:21.615Z,85.83
2017-08-31T02:25:27.293Z,85.96
2017-08-31T02:26:32.994Z,86.02
2017-08-31T02:27:38.324Z,86.75
2017-08-31T02:28:44.471Z,86.28
2017-08-31T02:29:50.573Z,86.19
2017-08-31T02:30:56.733Z,86.52
2017-08-31T02:32:02.809Z,86.76
2017-08-31T02:33:08.898Z,87.03
2017-08-31T02:34:14.636Z,87.76
2017-08-31T02:35:20.714Z,87.45
2017-08-31T02:36:26.405Z,87.21
2017-08-31T02:37:32.778Z,86.97
2017-08-31T02:38:38.866Z,86.99
2017-08-31T02:39:44.967Z,86.78
2017-08-31T02:40:50.483Z,87.08
2017-08-31T02:41:56.416Z,87.20
2017-08-31T02:43:03.032Z,87.18
2017-08-31T02:44:08.921Z,87.34
2017-08-31T02:45:15.017Z,87.21
2017-08-31T02:46:21.061Z,87.39
2017-08-31T02:47:27.013Z,87.15
2017-08-31T02:48:33.826Z,86.93
2017-08-31T02:49:40.714Z,86.95
2017-08-31T02:50:46.788Z,86.90
2017-08-31T02:51:52.844Z,86.85
2017-08-31T02:52:59.061Z,87.00
2017-08-31T02:54:04.992Z,86.74
2017-08-31T02:55:11.680Z,86.90
2017-08-31T02:56:17.608Z,87.02
2017-08-31T02:57:23.459Z,87.44
2017-08-31T02:58:29.407Z,87.58
2017-08-31T02:59:35.251Z,87.77
2017-08-31T03:00:41.143Z,87.75
2017-08-31T03:01:46.988Z,87.68
2017-08-31T03:02:52.856Z,88.01
2017-08-31T03:03:59.716Z,88.01
2017-08-31T03:05:06.523Z,88.05
2017-08-31T03:06:14.080Z,88.29
2017-08-31T03:07:19.948Z,87.92
2017-08-31T03:08:26.011Z,87.83
2017-08-31T03:09:32.590Z,87.93
2017-08-31T03:10:39.135Z,88.02
2017-08-31T03:11:48.697Z,87.91
2017-08-31T03:12:57.673Z,87.93
2017-08-31T03:14:03.550Z,88.21
2017-08-31T03:15:09.453Z,88.22
2017-08-31T03:16:15.432Z,88.25
2017-08-31T03:17:21.588Z,88.02
2017-08-31T03:18:27.435Z,88.42
2017-08-31T03:19:33.513Z,88.42
2017-08-31T03:20:39.387Z,88.20
2017-08-31T03:21:45.409Z,88.36
2017-08-31T03:22:51.295Z,88.91
2017-08-31T03:23:58.080Z,88.41
2017-08-31T03:25:04.054Z,88.70
2017-08-31T03:26:11.190Z,88.80
2017-08-31T03:27:17.044Z,88.91
2017-08-31T03:28:23.023Z,88.76
2017-08-31T03:29:29.616Z,89.22
2017-08-31T03:30:36.241Z,88.64
2017-08-31T03:31:42.228Z,88.57
2017-08-31T03:32:48.193Z,89.03
2017-08-31T03:33:54.155Z,88.93
2017-08-31T03:35:00.091Z,88.71
2017-08-31T03:36:06.132Z,89.04
2017-08-31T03:37:12.137Z,89.35
2017-08-31T03:38:17.997Z,89.37
2017-08-31T03:39:23.878Z,88.96
2017-08-31T03:40:38.184Z,89.14
2017-08-31T03:41:45.542Z,88.84
2017-08-31T03:42:51.397Z,88.83
2017-08-31T03:43:57.483Z,88.99
2017-08-31T03:45:03.329Z,88.58
2017-08-31T03:46:09.237Z,88.44
2017-08-31T03:47:16.066Z,88.37
2017-08-31T03:48:21.923Z,88.10
2017-08-31T03:49:28.507Z,88.12
2017-08-31T03:50:34.402Z,87.73
2017-08-31T03:51:40.289Z,87.72
2017-08-31T03:54:49.873Z,87.98
2017-08-31T03:55:55.924Z,86.88
2017-08-31T03:57:01.977Z,87.23
2017-08-31T03:58:07.876Z,87.04
2017-08-31T03:59:13.907Z,86.97
2017-08-31T04:00:19.866Z,86.79
2017-08-31T04:01:25.726Z,86.87
2017-08-31T04:02:31.596Z,86.18
2017-08-31T04:03:37.468Z,86.33
2017-08-31T04:04:43.430Z,86.24
2017-08-31T04:05:50.138Z,86.28
2017-08-31T04:06:56.800Z,85.90
2017-08-31T04:08:02.951Z,85.80
2017-08-31T04:09:08.856Z,85.91
2017-08-31T04:10:14.688Z,85.64
2017-08-31T04:11:20.522Z,85.49
2017-08-31T04:12:26.516Z,85.27
2017-08-31T04:13:32.455Z,84.40
2017-08-31T04:14:38.371Z,84.31
2017-08-31T04:15:44.289Z,84.28
2017-08-31T04:16:50.148Z,83.88
2017-08-31T04:17:56.568Z,84.14
2017-08-31T04:19:03.927Z,84.04
2017-08-31T04:20:11.174Z,83.68
2017-08-31T04:21:18.240Z,83.52
2017-08-31T04:22:26.561Z,83.48
2017-08-31T04:23:32.868Z,83.43
2017-08-31T04:24:38.755Z,83.24
2017-08-31T04:25:45.324Z,83.53
2017-08-31T04:26:51.164Z,82.34
2017-08-31T04:27:57.803Z,82.44
2017-08-31T04:29:03.695Z,81.97
2017-08-31T04:30:09.562Z,82.17
2017-08-31T04:31:15.391Z,81.99
2017-08-31T04:32:21.342Z,81.84
2017-08-31T04:33:27.226Z,81.08
2017-08-31T04:34:34.230Z,80.44
2017-08-31T04:35:40.978Z,80.48
2017-08-31T04:36:48.368Z,79.89
2017-08-31T04:37:54.289Z,80.07
2017-08-31T04:39:00.141Z,80.24
2017-08-31T04:40:06.067Z,80.47
2017-08-31T04:41:12.027Z,80.80
2017-08-31T04:42:17.859Z,80.20
2017-08-31T04:43:23.760Z,79.89
2017-08-31T04:44:29.602Z,79.90
2017-08-31T04:45:36.263Z,79.22
2017-08-31T04:46:42.896Z,79.15
2017-08-31T04:47:48.392Z,78.93
2017-08-31T04:48:54.809Z,79.26
2017-08-31T04:50:00.472Z,79.27
2017-08-31T04:51:06.430Z,78.97
2017-08-31T04:52:12.527Z,78.43
2017-08-31T04:53:18.730Z,78.22
2017-08-31T04:54:24.799Z,78.47
2017-08-31T04:55:31.588Z,78.72
2017-08-31T04:56:37.511Z,78.74
2017-08-31T04:57:43.770Z,78.43
2017-08-31T04:58:49.650Z,78.95
2017-08-31T04:59:56.185Z,79.21
2017-08-31T05:01:02.064Z,79.01
2017-08-31T05:02:08.677Z,78.46
2017-08-31T05:03:14.383Z,78.83
2017-08-31T05:04:20.088Z,78.16
2017-08-31T05:05:26.631Z,78.42
2017-08-31T05:06:32.336Z,78.51
2017-08-31T05:07:38.016Z,78.30
2017-08-31T05:08:43.710Z,78.78
2017-08-31T05:09:49.418Z,78.61
2017-08-31T05:10:55.219Z,78.43
2017-08-31T05:12:00.920Z,78.49
2017-08-31T05:13:06.567Z,78.93
2017-08-31T05:14:12.926Z,78.94
2017-08-31T05:15:18.598Z,78.83
2017-08-31T05:16:24.303Z,79.20
2017-08-31T05:17:30.789Z,78.67
2017-08-31T05:18:37.261Z,78.59
2017-08-31T05:19:42.929Z,78.42
2017-08-31T05:20:48.734Z,78.61
2017-08-31T05:21:54.483Z,78.68
2017-08-31T05:23:01.472Z,78.50
2017-08-31T05:24:07.135Z,78.42
2017-08-31T05:25:13.058Z,78.45
2017-08-31T05:26:19.035Z,78.41
2017-08-31T05:27:25.309Z,78.84
2017-08-31T05:28:30.960Z,78.85
2017-08-31T05:29:36.629Z,79.41
2017-08-31T05:30:42.370Z,79.59
2017-08-31T05:31:48.080Z,78.90
2017-08-31T05:32:53.784Z,79.19
2017-08-31T05:33:59.488Z,79.05
2017-08-31T05:35:05.165Z,78.91
2017-08-31T05:36:10.863Z,78.95
2017-08-31T05:37:17.119Z,78.91
2017-08-31T05:38:22.799Z,78.48
2017-08-31T05:39:28.464Z,78.41
2017-08-31T05:40:34.605Z,78.54
2017-08-31T05:41:41.007Z,78.44
2017-08-31T05:42:46.679Z,78.68
2017-08-31T05:43:52.416Z,78.20
2017-08-31T05:44:58.266Z,78.06
2017-08-31T05:46:04.575Z,78.41
2017-08-31T05:47:10.342Z,78.02
2017-08-31T05:48:16.646Z,78.05
2017-08-31T05:49:23.472Z,78.03
2017-08-31T05:50:30.030Z,77.54
2017-08-31T05:51:35.940Z,77.86
2017-08-31T05:52:58.574Z,77.51
2017-08-31T05:54:04.121Z,77.64
2017-08-31T05:55:10.224Z,77.19
2017-08-31T05:56:20.683Z,77.80
2017-08-31T05:57:29.108Z,77.21
2017-08-31T05:58:40.550Z,77.35
2017-08-31T06:00:00.139Z,77.40
2017-08-31T06:01:08.463Z,77.23
2017-08-31T06:02:31.795Z,77.31
2017-08-31T06:03:40.761Z,77.58
2017-08-31T06:04:49.109Z,77.46
2017-08-31T06:06:04.440Z,77.52
2017-08-31T06:07:11.230Z,78.14
2017-08-31T06:08:24.668Z,77.95
2017-08-31T06:09:37.208Z,78.12
2017-08-31T06:10:50.344Z,77.41
2017-08-31T06:12:04.658Z,77.47
2017-08-31T06:13:16.900Z,77.20
2017-08-31T06:25:54.881Z,76.89
2017-08-31T06:29:08.298Z,76.73
2017-08-31T06:34:07.926Z,74.83
2017-08-31T06:35:42.891Z,74.18
2017-08-31T07:00:19.322Z,72.85
2017-08-31T07:01:30.389Z,72.81
2017-08-31T07:03:01.653Z,72.27
2017-08-31T07:04:09.914Z,72.63
2017-08-31T07:10:51.993Z,71.15
2017-08-31T07:13:19.236Z,71.84
2017-08-31T07:15:56.212Z,70.86
2017-08-31T07:17:04.692Z,70.58
2017-08-31T07:18:17.165Z,70.51
2017-08-31T07:20:06.846Z,69.67
2017-08-31T07:24:21.964Z,69.65
2017-08-31T07:25:29.925Z,69.61
2017-08-31T07:32:52.232Z,69.13
2017-08-31T07:34:05.958Z,69.21
2017-08-31T07:35:12.523Z,69.36
2017-08-31T07:36:18.536Z,68.13
2017-08-31T07:37:29.209Z,68.48
2017-08-31T07:38:36.142Z,68.87
2017-08-31T07:39:46.275Z,68.28
2017-08-31T07:40:56.305Z,69.18
2017-08-31T07:42:02.725Z,68.48
2017-08-31T07:43:18.344Z,67.12
2017-08-31T07:44:25.278Z,67.86
2017-08-31T07:45:31.290Z,67.41
2017-08-31T07:46:42.299Z,67.76
2017-08-31T07:47:58.117Z,68.11
2017-08-31T07:49:05.822Z,66.65
2017-08-31T07:50:11.837Z,66.54
2017-08-31T07:51:19.788Z,65.90
2017-08-31T07:52:50.459Z,66.27
2017-08-31T07:53:56.855Z,65.83
2017-08-31T07:55:05.938Z,66.97
2017-08-31T07:56:14.399Z,66.75
2017-08-31T07:57:21.525Z,68.20
2017-08-31T07:58:27.851Z,68.19
2017-08-31T07:59:42.488Z,68.89
2017-08-31T08:00:49.569Z,67.99
2017-08-31T08:01:58.869Z,67.96
2017-08-31T08:03:04.993Z,67.50
2017-08-31T08:04:10.822Z,67.30
2017-08-31T08:05:16.860Z,67.35
2017-08-31T08:06:24.313Z,67.21
2017-08-31T08:07:32.773Z,67.74
2017-08-31T08:08:42.758Z,66.17
2017-08-31T08:09:52.025Z,66.84
2017-08-31T08:10:59.680Z,67.21
2017-08-31T08:12:08.828Z,66.35
2017-08-31T08:13:20.488Z,65.68
2017-08-31T08:14:26.454Z,66.08
2017-08-31T08:15:33.068Z,66.87
2017-08-31T08:16:41.745Z,66.50
2017-08-31T08:17:47.666Z,66.87
2017-08-31T08:18:53.772Z,66.35
2017-08-31T08:20:00.773Z,66.27
2017-08-31T08:21:06.822Z,66.11
2017-08-31T08:22:13.031Z,66.67
2017-08-31T08:23:19.993Z,65.47
2017-08-31T08:24:26.186Z,66.23
2017-08-31T08:25:32.097Z,67.45
2017-08-31T08:26:38.040Z,67.39
2017-08-31T08:27:44.015Z,67.55
2017-08-31T08:28:49.941Z,67.12
2017-08-31T08:29:55.797Z,67.62
2017-08-31T08:31:02.248Z,67.01
2017-08-31T08:32:08.495Z,67.05
2017-08-31T08:33:14.440Z,68.15
2017-08-31T08:34:20.411Z,68.16
2017-08-31T08:35:26.594Z,67.52
2017-08-31T08:36:32.665Z,66.99
2017-08-31T08:37:39.086Z,66.69
2017-08-31T08:38:45.136Z,67.63
2017-08-31T08:39:51.656Z,68.53
2017-08-31T08:40:57.566Z,67.20
2017-08-31T08:42:03.459Z,67.82
2017-08-31T08:43:09.421Z,68.50
2017-08-31T08:44:15.477Z,67.25
2017-08-31T08:45:21.340Z,67.96
2017-08-31T08:46:27.781Z,68.45
2017-08-31T08:47:34.358Z,67.99
2017-08-31T08:48:40.240Z,68.08
2017-08-31T08:49:46.540Z,67.58
2017-08-31T08:50:52.224Z,68.95
2017-08-31T08:51:58.739Z,68.30
2017-08-31T08:53:04.721Z,68.79
2017-08-31T08:54:10.687Z,69.50
2017-08-31T08:55:16.572Z,69.98
2017-08-31T08:56:22.573Z,70.89
2017-08-31T08:57:28.429Z,69.86
2017-08-31T08:58:35.052Z,68.13
2017-08-31T08:59:41.014Z,68.00
2017-08-31T09:00:46.860Z,67.83
2017-08-31T09:01:52.826Z,68.46
2017-08-31T09:02:59.380Z,67.68
2017-08-31T09:04:05.403Z,69.41
2017-08-31T09:05:11.601Z,67.98
2017-08-31T09:06:17.487Z,68.25
2017-08-31T09:07:23.822Z,68.41
2017-08-31T09:08:29.792Z,67.55
2017-08-31T09:09:36.005Z,67.63
2017-08-31T09:10:41.855Z,68.85
2017-08-31T09:11:47.602Z,68.36
2017-08-31T09:12:53.690Z,69.27
2017-08-31T09:13:59.583Z,70.45
2017-08-31T09:15:05.502Z,70.85
2017-08-31T09:16:11.486Z,70.39
2017-08-31T09:17:18.045Z,71.08
2017-08-31T09:18:23.932Z,71.84
2017-08-31T09:19:29.848Z,72.17
2017-08-31T09:20:35.861Z,73.00
2017-08-31T09:21:42.067Z,74.38
2017-08-31T09:22:48.145Z,73.98
2017-08-31T09:23:54.380Z,74.23
2017-08-31T09:25:00.426Z,74.39
2017-08-31T09:26:06.433Z,74.83
2017-08-31T09:27:12.296Z,74.76
2017-08-31T09:28:18.185Z,75.37
2017-08-31T09:29:24.115Z,75.67
2017-08-31T09:30:29.986Z,76.98
2017-08-31T09:31:35.894Z,75.89
2017-08-31T09:32:41.893Z,77.29
2017-08-31T09:33:47.800Z,76.38
2017-08-31T09:34:53.869Z,76.39
2017-08-31T09:35:59.829Z,76.23
2017-08-31T09:37:06.542Z,76.62
2017-08-31T09:38:14.247Z,77.63
2017-08-31T09:39:24.593Z,78.45
2017-08-31T09:40:30.884Z,78.62
2017-08-31T09:41:36.948Z,78.42
2017-08-31T09:42:43.159Z,79.21
2017-08-31T09:43:49.111Z,78.17
2017-08-31T09:44:55.036Z,77.61
2017-08-31T09:46:01.090Z,77.74
2017-08-31T09:47:07.039Z,78.90
2017-08-31T09:48:13.589Z,79.02
2017-08-31T09:49:19.912Z,81.16
2017-08-31T09:50:25.728Z,81.13
2017-08-31T09:51:31.831Z,81.01
2017-08-31T09:52:37.802Z,79.82
2017-08-31T09:53:44.868Z,80.06
2017-08-31T09:54:50.843Z,79.93
2017-08-31T09:55:57.586Z,79.34
2017-08-31T09:57:04.171Z,79.07
2017-08-31T09:58:10.184Z,79.05
2017-08-31T09:59:16.067Z,79.87
2017-08-31T10:00:22.776Z,78.66
2017-08-31T10:01:28.830Z,78.07
2017-08-31T10:02:35.074Z,78.89
2017-08-31T10:03:41.590Z,77.43
2017-08-31T10:04:47.511Z,77.11
2017-08-31T10:05:53.374Z,78.23
2017-08-31T10:06:59.976Z,78.15
2017-08-31T10:08:05.912Z,77.76
2017-08-31T10:09:11.794Z,78.55
2017-08-31T10:10:18.391Z,78.08
2017-08-31T10:11:24.255Z,76.81
2017-08-31T10:12:30.265Z,76.08
2017-08-31T10:13:36.121Z,76.41
2017-08-31T10:14:41.992Z,76.99
2017-08-31T10:15:47.349Z,77.12
2017-08-31T10:16:52.910Z,78.04
2017-08-31T10:17:58.949Z,78.79
2017-08-31T10:19:04.873Z,79.65
2017-08-31T10:20:11.039Z,78.12
2017-08-31T10:21:16.953Z,78.50
2017-08-31T10:22:22.859Z,79.62
2017-08-31T10:23:28.844Z,78.16
2017-08-31T10:24:34.743Z,79.65
2017-08-31T10:25:41.434Z,79.79
2017-08-31T10:26:47.774Z,79.92
2017-08-31T10:27:54.388Z,80.02
2017-08-31T10:29:00.548Z,78.87
2017-08-31T10:30:07.249Z,79.75
2017-08-31T10:31:12.972Z,79.28
2017-08-31T10:32:18.652Z,77.10
2017-08-31T10:33:24.698Z,77.56
2017-08-31T10:34:30.369Z,76.79
2017-08-31T10:35:36.064Z,76.70
2017-08-31T10:36:41.765Z,74.62
2017-08-31T10:37:47.548Z,75.27
2017-08-31T10:38:53.281Z,74.57
2017-08-31T10:39:59.116Z,76.57
2017-08-31T10:41:04.844Z,76.12
2017-08-31T10:42:10.500Z,76.27
2017-08-31T10:43:16.202Z,75.38
2017-08-31T10:44:21.964Z,74.57
2017-08-31T10:45:28.142Z,74.19
2017-08-31T10:46:33.925Z,71.99
2017-08-31T10:47:39.600Z,72.79
2017-08-31T10:48:45.344Z,74.00
2017-08-31T10:49:51.045Z,72.78
2017-08-31T10:50:56.771Z,73.51
2017-08-31T10:52:03.486Z,73.73
2017-08-31T10:53:09.261Z,73.48
2017-08-31T10:54:14.954Z,71.96
2017-08-31T10:55:20.627Z,73.88
2017-08-31T10:56:26.386Z,73.09
2017-08-31T10:57:32.048Z,72.52
2017-08-31T10:58:38.503Z,73.42
2017-08-31T10:59:44.175Z,72.76
2017-08-31T11:00:49.870Z,71.95
2017-08-31T11:01:55.794Z,68.96
2017-08-31T11:03:01.510Z,69.96
2017-08-31T11:04:07.173Z,69.13
2017-08-31T11:05:12.861Z,68.84
2017-08-31T11:06:18.722Z,68.25
2017-08-31T11:07:24.470Z,68.77
2017-08-31T11:08:30.181Z,66.76
2017-08-31T11:09:35.839Z,69.01
2017-08-31T11:10:41.528Z,66.66
2017-08-31T11:11:47.819Z,67.77
2017-08-31T11:12:53.511Z,66.46
2017-08-31T11:13:59.316Z,66.43
2017-08-31T11:15:05.066Z,66.23
2017-08-31T11:17:15.002Z,66.89
2017-08-31T11:18:20.692Z,67.08
2017-08-31T11:19:26.433Z,67.96
2017-08-31T11:20:32.163Z,67.58
2017-08-31T11:21:37.936Z,69.16
2017-08-31T11:22:43.610Z,67.96
2017-08-31T11:23:50.010Z,67.00
2017-08-31T11:24:55.772Z,67.21
2017-08-31T11:26:01.508Z,67.40
2017-08-31T11:27:07.440Z,67.78
2017-08-31T11:28:13.459Z,68.15
2017-08-31T11:29:19.452Z,67.49
2017-08-31T11:30:25.540Z,67.54
2017-08-31T11:31:31.547Z,68.49
2017-08-31T11:32:37.500Z,68.72
2017-08-31T11:33:44.215Z,69.10
2017-08-31T11:34:50.364Z,68.71
2017-08-31T11:35:57.530Z,68.19
2017-08-31T11:37:03.469Z,68.59
2017-08-31T11:38:11.254Z,67.13
2017-08-31T11:39:19.557Z,67.54
2017-08-31T11:40:27.019Z,68.24
2017-08-31T11:41:32.966Z,67.73
2017-08-31T11:42:39.012Z,68.62
2017-08-31T11:43:44.905Z,68.64
2017-08-31T11:44:52.070Z,66.55
2017-08-31T11:45:58.124Z,67.87
2017-08-31T11:47:06.147Z,68.10
2017-08-31T11:48:14.199Z,68.63
2017-08-31T11:49:22.084Z,68.01
2017-08-31T11:50:29.591Z,67.82
2017-08-31T11:51:35.517Z,67.73
2017-08-31T11:52:41.592Z,67.98
2017-08-31T11:53:48.062Z,67.37
2017-08-31T11:54:55.763Z,66.88
2017-08-31T11:56:02.377Z,67.20
2017-08-31T11:57:08.452Z,67.23
2017-08-31T11:58:14.385Z,67.41
2017-08-31T11:59:20.354Z,66.98
2017-08-31T12:00:26.349Z,66.86
2017-08-31T12:01:32.194Z,65.31
2017-08-31T12:02:38.708Z,65.86
2017-08-31T12:03:44.570Z,66.76
2017-08-31T12:04:54.205Z,65.37
2017-08-31T12:06:02.146Z,65.01
2017-08-31T12:07:08.525Z,65.17
2017-08-31T12:08:16.042Z,67.94
2017-08-31T12:09:21.949Z,67.81
2017-08-31T12:10:27.944Z,68.11
2017-08-31T12:11:33.953Z,68.19
2017-08-31T12:12:40.787Z,68.51
2017-08-31T12:13:46.721Z,69.71
2017-08-31T12:14:53.581Z,71.32
2017-08-31T12:16:01.198Z,76.10
2017-08-31T12:17:07.718Z,79.70
2017-08-31T12:18:14.865Z,81.46
2017-08-31T12:19:20.754Z,85.38
2017-08-31T12:20:26.741Z,85.64
2017-08-31T12:21:32.604Z,86.18
2017-08-31T12:22:38.673Z,88.52
2017-08-31T12:23:44.638Z,89.35
2017-08-31T12:24:50.485Z,90.12
2017-08-31T12:25:57.138Z,92.42
2017-08-31T12:27:03.024Z,92.80
2017-08-31T12:28:08.905Z,92.90
2017-08-31T12:29:14.863Z,93.48
2017-08-31T12:30:20.831Z,93.05
2017-08-31T12:31:26.728Z,94.36
2017-08-31T12:32:32.693Z,93.85
2017-08-31T12:33:38.614Z,93.82
2017-08-31T12:34:45.994Z,93.91
2017-08-31T12:35:52.052Z,94.00
2017-08-31T12:36:57.894Z,94.05
2017-08-31T12:38:04.475Z,94.54
2017-08-31T12:39:10.930Z,95.99
2017-08-31T12:40:16.859Z,96.07
2017-08-31T12:41:22.757Z,95.58
2017-08-31T12:42:28.786Z,94.83
2017-08-31T12:43:34.739Z,94.94
2017-08-31T12:44:40.749Z,95.39
2017-08-31T12:45:47.571Z,94.66
2017-08-31T12:46:53.653Z,95.74
2017-08-31T12:47:59.692Z,95.73
2017-08-31T12:49:06.531Z,94.81
2017-08-31T12:50:13.503Z,94.87
2017-08-31T12:51:19.628Z,95.59
2017-08-31T12:52:27.592Z,95.05
2017-08-31T12:53:34.893Z,94.78
2017-08-31T12:54:43.837Z,95.30
2017-08-31T12:55:51.302Z,96.02
2017-08-31T12:56:59.388Z,94.56
2017-08-31T12:58:05.464Z,95.16
2017-08-31T12:59:13.562Z,94.84
2017-08-31T13:00:20.818Z,94.31
2017-08-31T13:01:27.261Z,94.20
2017-08-31T13:02:33.366Z,93.61
2017-08-31T13:03:39.886Z,94.61
2017-08-31T13:04:46.502Z,95.11
2017-08-31T13:05:52.616Z,94.54
2017-08-31T13:06:58.947Z,94.76
2017-08-31T13:08:06.550Z,94.56
2017-08-31T13:09:12.455Z,95.12
2017-08-31T13:10:20.218Z,94.80
2017-08-31T13:11:27.961Z,94.65
2017-08-31T13:12:35.004Z,94.13
2017-08-31T13:13:41.814Z,94.78
2017-08-31T13:14:48.362Z,95.02
2017-08-31T13:15:54.503Z,93.66
2017-08-31T13:17:01.203Z,94.05
2017-08-31T13:18:07.157Z,92.86
2017-08-31T13:19:13.152Z,91.90
2017-08-31T13:20:19.106Z,92.88
2017-08-31T13:21:25.724Z,93.64
2017-08-31T13:22:31.819Z,93.74
2017-08-31T13:23:38.385Z,93.98
2017-08-31T13:24:46.244Z,93.96
2017-08-31T13:25:52.310Z,92.97
2017-08-31T13:27:00.014Z,92.62
2017-08-31T13:28:06.300Z,94.42
2017-08-31T13:29:12.106Z,94.77
2017-08-31T13:30:18.801Z,94.21
2017-08-31T13:31:25.300Z,93.35
2017-08-31T13:32:31.313Z,93.94
2017-08-31T13:33:37.286Z,93.76
2017-08-31T13:34:44.500Z,93.92
2017-08-31T13:35:50.435Z,93.63
2017-08-31T13:36:56.353Z,94.15
2017-08-31T13:38:02.456Z,93.68
2017-08-31T13:39:08.328Z,92.83
2017-08-31T13:40:14.217Z,93.25
2017-08-31T13:41:21.057Z,94.00
2017-08-31T13:42:26.945Z,93.69
2017-08-31T13:43:33.006Z,94.55
2017-08-31T13:44:39.153Z,93.95
2017-08-31T13:45:45.751Z,93.45
2017-08-31T13:46:51.772Z,94.09
2017-08-31T13:47:58.486Z,94.04
2017-08-31T13:49:04.599Z,93.77
2017-08-31T13:50:12.537Z,96.19
2017-08-31T13:51:19.966Z,93.32
2017-08-31T13:52:26.394Z,92.08
2017-08-31T13:53:32.519Z,92.44
2017-08-31T13:54:38.600Z,91.20
2017-08-31T13:55:45.669Z,90.45
2017-08-31T13:56:52.883Z,90.53
2017-08-31T13:58:00.633Z,91.82
2017-08-31T13:59:07.092Z,89.90
2017-08-31T14:00:12.982Z,90.54
2017-08-31T14:01:20.370Z,91.30
2017-08-31T14:02:27.195Z,93.64
2017-08-31T14:03:34.031Z,93.04
2017-08-31T14:04:41.148Z,92.54
2017-08-31T14:05:47.009Z,92.59
2017-08-31T14:06:52.888Z,89.55
2017-08-31T14:07:58.976Z,91.12
2017-08-31T14:09:04.222Z,91.03
2017-08-31T14:10:10.079Z,91.18
2017-08-31T14:11:15.972Z,90.80
2017-08-31T14:12:21.899Z,90.20
2017-08-31T14:13:27.818Z,90.64
2017-08-31T14:14:35.361Z,90.85
2017-08-31T14:15:41.360Z,91.19
2017-08-31T14:16:48.117Z,89.25
2017-08-31T14:17:55.156Z,89.31
2017-08-31T14:19:01.636Z,90.50
2017-08-31T14:20:08.014Z,90.59
2017-08-31T14:21:13.988Z,89.91
2017-08-31T14:22:21.243Z,90.46
2017-08-31T14:23:27.627Z,90.56
2017-08-31T14:24:34.281Z,89.66
2017-08-31T14:25:41.917Z,89.82
2017-08-31T14:26:48.321Z,90.73
2017-08-31T14:27:54.861Z,90.38
2017-08-31T14:29:01.066Z,89.93
2017-08-31T14:30:07.773Z,89.35
2017-08-31T14:31:14.828Z,88.09
2017-08-31T14:32:23.338Z,88.80
2017-08-31T14:33:29.409Z,88.61
2017-08-31T14:34:36.784Z,89.76
2017-08-31T14:35:43.648Z,89.61
2017-08-31T14:36:49.573Z,88.94
2017-08-31T14:37:55.540Z,89.20
2017-08-31T14:39:01.490Z,89.29
2017-08-31T14:40:08.229Z,88.95
2017-08-31T14:41:14.979Z,89.91
2017-08-31T14:42:20.958Z,90.43
2017-08-31T14:43:26.913Z,89.24
2017-08-31T14:44:34.943Z,88.95
2017-08-31T14:45:41.226Z,89.14
2017-08-31T14:46:47.200Z,89.45
2017-08-31T14:47:53.108Z,90.27
2017-08-31T14:48:59.395Z,89.71
2017-08-31T14:50:05.380Z,89.10
2017-08-31T14:51:11.385Z,89.27
2017-08-31T14:52:17.989Z,89.89
2017-08-31T14:53:23.959Z,90.30
2017-08-31T14:54:30.461Z,89.43
2017-08-31T14:55:36.530Z,89.00
2017-08-31T14:56:42.494Z,89.20
2017-08-31T14:57:48.855Z,90.49
2017-08-31T14:58:54.788Z,89.72
2017-08-31T15:00:00.690Z,89.00
2017-08-31T15:01:06.650Z,88.41
2017-08-31T15:02:12.636Z,88.78
2017-08-31T15:03:18.575Z,87.55
2017-08-31T15:04:24.500Z,88.32
2017-08-31T15:05:30.385Z,87.59
2017-08-31T15:06:36.355Z,88.27
2017-08-31T15:07:43.063Z,87.20
2017-08-31T15:08:49.156Z,87.38
2017-08-31T15:09:55.214Z,88.25
2017-08-31T15:11:01.266Z,88.00
2017-08-31T15:12:07.977Z,86.98
2017-08-31T15:13:13.906Z,88.26
2017-08-31T15:14:19.944Z,88.22
2017-08-31T15:15:25.905Z,88.94
2017-08-31T15:16:31.869Z,88.01
2017-08-31T15:17:38.440Z,86.60
2017-08-31T15:18:44.402Z,86.96
2017-08-31T15:19:50.469Z,86.72
2017-08-31T15:20:56.380Z,86.10